sensor_id;sensor_type;location;lat;lon;timestamp;temperature;humidity
36280;DHT22;22317;47.936;12.742;2023-04-03T00:02:08;3.30;60.90
36280;DHT22;22317;47.936;12.742;2023-04-03T00:04:33;3.20;60.70
36280;DHT22;22317;47.936;12.742;2023-04-03T00:07:00;1.20;59.60
36280;DHT22;22317;47.936;12.742;2023-04-03T00:09:26;3.30;60.80
36280;DHT22;22317;47.936;12.742;2023-04-03T00:11:51;3.30;60.60
36280;DHT22;22317;47.936;12.742;2023-04-03T00:14:17;3.30;60.60
36280;DHT22;22317;47.936;12.742;2023-04-03T00:16:43;3.30;60.50
36280;DHT22;22317;47.936;12.742;2023-04-03T00:19:09;3.30;60.40
36280;DHT22;22317;47.936;12.742;2023-04-03T00:21:37;3.30;60.40
36280;DHT22;22317;47.936;12.742;2023-04-03T00:24:03;3.30;60.50
36280;DHT22;22317;47.936;12.742;2023-04-03T00:26:29;3.30;60.50
36280;DHT22;22317;47.936;12.742;2023-04-03T00:28:55;3.30;60.40
36280;DHT22;22317;47.936;12.742;2023-04-03T00:31:21;3.40;60.40
36280;DHT22;22317;47.936;12.742;2023-04-03T00:33:47;3.30;60.30
36280;DHT22;22317;47.936;12.742;2023-04-03T00:36:13;3.30;60.30
36280;DHT22;22317;47.936;12.742;2023-04-03T00:38:39;3.30;60.30
36280;DHT22;22317;47.936;12.742;2023-04-03T00:41:05;3.30;60.20
36280;DHT22;22317;47.936;12.742;2023-04-03T00:43:31;3.30;60.20
36280;DHT22;22317;47.936;12.742;2023-04-03T00:45:58;3.30;60.20
36280;DHT22;22317;47.936;12.742;2023-04-03T00:50:52;3.30;60.20
36280;DHT22;22317;47.936;12.742;2023-04-03T00:53:23;3.30;60.20
36280;DHT22;22317;47.936;12.742;2023-04-03T00:55:51;3.30;60.20
36280;DHT22;22317;47.936;12.742;2023-04-03T00:58:19;3.30;60.10
36280;DHT22;22317;47.936;12.742;2023-04-03T01:00:50;3.30;60.00
36280;DHT22;22317;47.936;12.742;2023-04-03T01:03:21;3.30;60.00
36280;DHT22;22317;47.936;12.742;2023-04-03T01:05:47;3.30;60.00
36280;DHT22;22317;47.936;12.742;2023-04-03T01:08:13;3.30;60.00
36280;DHT22;22317;47.936;12.742;2023-04-03T01:10:39;3.30;60.00
36280;DHT22;22317;47.936;12.742;2023-04-03T01:13:19;3.30;60.00
36280;DHT22;22317;47.936;12.742;2023-04-03T01:15:46;3.40;60.10
36280;DHT22;22317;47.936;12.742;2023-04-03T01:18:11;3.40;60.00
36280;DHT22;22317;47.936;12.742;2023-04-03T01:26:07;3.40;59.90
36280;DHT22;22317;47.936;12.742;2023-04-03T01:28:36;3.40;59.80
36280;DHT22;22317;47.936;12.742;2023-04-03T01:31:27;3.40;59.80
36280;DHT22;22317;47.936;12.742;2023-04-03T01:33:55;3.30;59.90
36280;DHT22;22317;47.936;12.742;2023-04-03T01:36:27;3.30;59.80
36280;DHT22;22317;47.936;12.742;2023-04-03T01:38:55;3.40;59.90
36280;DHT22;22317;47.936;12.742;2023-04-03T01:41:21;3.40;59.90
36280;DHT22;22317;47.936;12.742;2023-04-03T01:43:48;3.50;60.00
36280;DHT22;22317;47.936;12.742;2023-04-03T01:46:15;3.40;59.90
36280;DHT22;22317;47.936;12.742;2023-04-03T01:48:41;3.40;59.80
36280;DHT22;22317;47.936;12.742;2023-04-03T01:51:08;3.40;59.70
36280;DHT22;22317;47.936;12.742;2023-04-03T01:53:34;3.40;59.60
36280;DHT22;22317;47.936;12.742;2023-04-03T01:56:00;3.40;59.40
36280;DHT22;22317;47.936;12.742;2023-04-03T01:58:26;3.30;59.40
36280;DHT22;22317;47.936;12.742;2023-04-03T02:00:53;3.30;59.60
36280;DHT22;22317;47.936;12.742;2023-04-03T02:03:19;3.30;59.60
36280;DHT22;22317;47.936;12.742;2023-04-03T02:05:45;3.30;59.60
36280;DHT22;22317;47.936;12.742;2023-04-03T02:08:12;3.30;59.70
36280;DHT22;22317;47.936;12.742;2023-04-03T02:10:38;3.40;59.70
36280;DHT22;22317;47.936;12.742;2023-04-03T02:13:05;3.30;59.70
36280;DHT22;22317;47.936;12.742;2023-04-03T02:15:31;3.30;59.50
36280;DHT22;22317;47.936;12.742;2023-04-03T02:17:57;3.30;59.30
36280;DHT22;22317;47.936;12.742;2023-04-03T02:20:22;3.30;59.50
36280;DHT22;22317;47.936;12.742;2023-04-03T02:22:48;3.20;59.50
36280;DHT22;22317;47.936;12.742;2023-04-03T02:25:14;2.30;59.10
36280;DHT22;22317;47.936;12.742;2023-04-03T02:27:40;3.20;59.50
36280;DHT22;22317;47.936;12.742;2023-04-03T02:30:06;3.20;59.50
36280;DHT22;22317;47.936;12.742;2023-04-03T02:32:32;3.20;59.60
36280;DHT22;22317;47.936;12.742;2023-04-03T02:34:58;3.30;59.60
36280;DHT22;22317;47.936;12.742;2023-04-03T02:37:24;3.30;59.50
36280;DHT22;22317;47.936;12.742;2023-04-03T02:39:52;3.20;59.30
36280;DHT22;22317;47.936;12.742;2023-04-03T02:42:18;3.20;59.40
36280;DHT22;22317;47.936;12.742;2023-04-03T02:44:44;3.20;59.50
36280;DHT22;22317;47.936;12.742;2023-04-03T02:47:10;3.30;59.60
36280;DHT22;22317;47.936;12.742;2023-04-03T02:49:36;3.30;59.50
36280;DHT22;22317;47.936;12.742;2023-04-03T02:52:02;3.50;59.50
36280;DHT22;22317;47.936;12.742;2023-04-03T02:54:28;3.20;59.30
36280;DHT22;22317;47.936;12.742;2023-04-03T02:56:59;3.20;59.30
36280;DHT22;22317;47.936;12.742;2023-04-03T02:59:25;3.20;59.30
36280;DHT22;22317;47.936;12.742;2023-04-03T03:01:50;3.20;59.30
36280;DHT22;22317;47.936;12.742;2023-04-03T03:04:16;3.20;59.20
36280;DHT22;22317;47.936;12.742;2023-04-03T03:06:42;3.10;59.20
36280;DHT22;22317;47.936;12.742;2023-04-03T03:09:08;3.10;59.20
36280;DHT22;22317;47.936;12.742;2023-04-03T03:11:33;3.10;59.10
36280;DHT22;22317;47.936;12.742;2023-04-03T03:14:01;3.10;59.20
36280;DHT22;22317;47.936;12.742;2023-04-03T03:16:27;3.10;59.10
36280;DHT22;22317;47.936;12.742;2023-04-03T03:18:53;3.10;59.00
36280;DHT22;22317;47.936;12.742;2023-04-03T03:21:19;3.00;59.00
36280;DHT22;22317;47.936;12.742;2023-04-03T03:23:45;3.00;58.90
36280;DHT22;22317;47.936;12.742;2023-04-03T03:26:11;3.00;59.00
36280;DHT22;22317;47.936;12.742;2023-04-03T03:28:38;3.00;59.00
36280;DHT22;22317;47.936;12.742;2023-04-03T03:31:05;3.00;59.00
36280;DHT22;22317;47.936;12.742;2023-04-03T03:33:32;3.00;59.10
36280;DHT22;22317;47.936;12.742;2023-04-03T03:35:59;3.00;59.10
36280;DHT22;22317;47.936;12.742;2023-04-03T03:38:25;3.00;59.10
36280;DHT22;22317;47.936;12.742;2023-04-03T03:40:52;3.00;59.10
36280;DHT22;22317;47.936;12.742;2023-04-03T03:43:19;3.10;59.10
36280;DHT22;22317;47.936;12.742;2023-04-03T03:45:51;3.10;59.00
36280;DHT22;22317;47.936;12.742;2023-04-03T03:48:18;3.10;59.00
36280;DHT22;22317;47.936;12.742;2023-04-03T03:50:44;3.00;58.80
36280;DHT22;22317;47.936;12.742;2023-04-03T03:53:10;3.00;58.80
36280;DHT22;22317;47.936;12.742;2023-04-03T03:55:37;3.00;58.80
36280;DHT22;22317;47.936;12.742;2023-04-03T03:58:02;3.00;58.70
36280;DHT22;22317;47.936;12.742;2023-04-03T04:00:30;2.90;58.70
36280;DHT22;22317;47.936;12.742;2023-04-03T04:02:56;2.90;58.80
36280;DHT22;22317;47.936;12.742;2023-04-03T04:05:23;2.90;58.80
36280;DHT22;22317;47.936;12.742;2023-04-03T04:07:52;2.80;58.80
36280;DHT22;22317;47.936;12.742;2023-04-03T04:10:18;2.80;58.90
36280;DHT22;22317;47.936;12.742;2023-04-03T04:12:45;2.80;58.90
36280;DHT22;22317;47.936;12.742;2023-04-03T04:15:11;2.80;58.90
36280;DHT22;22317;47.936;12.742;2023-04-03T04:17:37;2.80;58.80
36280;DHT22;22317;47.936;12.742;2023-04-03T04:20:06;2.80;58.90
36280;DHT22;22317;47.936;12.742;2023-04-03T04:22:32;2.90;58.90
36280;DHT22;22317;47.936;12.742;2023-04-03T04:24:58;2.90;58.90
36280;DHT22;22317;47.936;12.742;2023-04-03T04:27:25;2.90;58.90
36280;DHT22;22317;47.936;12.742;2023-04-03T04:29:50;3.00;58.80
36280;DHT22;22317;47.936;12.742;2023-04-03T04:32:17;2.90;58.80
36280;DHT22;22317;47.936;12.742;2023-04-03T04:34:44;2.90;58.80
36280;DHT22;22317;47.936;12.742;2023-04-03T04:37:10;2.90;58.80
36280;DHT22;22317;47.936;12.742;2023-04-03T04:39:36;2.90;59.10
36280;DHT22;22317;47.936;12.742;2023-04-03T04:42:02;3.00;58.80
36280;DHT22;22317;47.936;12.742;2023-04-03T04:44:30;2.90;58.70
36280;DHT22;22317;47.936;12.742;2023-04-03T04:46:56;2.90;58.80
36280;DHT22;22317;47.936;12.742;2023-04-03T04:49:21;2.90;58.60
36280;DHT22;22317;47.936;12.742;2023-04-03T04:51:48;2.90;58.60
36280;DHT22;22317;47.936;12.742;2023-04-03T04:54:14;2.90;58.60
36280;DHT22;22317;47.936;12.742;2023-04-03T04:56:40;2.90;58.60
36280;DHT22;22317;47.936;12.742;2023-04-03T04:59:06;2.90;58.50
36280;DHT22;22317;47.936;12.742;2023-04-03T05:01:32;2.90;58.60
36280;DHT22;22317;47.936;12.742;2023-04-03T05:04:08;2.90;58.70
36280;DHT22;22317;47.936;12.742;2023-04-03T05:06:34;3.00;58.70
36280;DHT22;22317;47.936;12.742;2023-04-03T05:09:03;2.90;58.70
36280;DHT22;22317;47.936;12.742;2023-04-03T05:11:30;2.90;58.80
36280;DHT22;22317;47.936;12.742;2023-04-03T05:13:56;2.90;58.60
36280;DHT22;22317;47.936;12.742;2023-04-03T05:16:23;3.00;58.70
36280;DHT22;22317;47.936;12.742;2023-04-03T05:18:49;2.90;58.60
36280;DHT22;22317;47.936;12.742;2023-04-03T05:21:18;3.00;58.70
36280;DHT22;22317;47.936;12.742;2023-04-03T05:23:46;3.00;58.60
36280;DHT22;22317;47.936;12.742;2023-04-03T05:26:12;3.00;58.60
36280;DHT22;22317;47.936;12.742;2023-04-03T05:28:38;3.00;58.60
36280;DHT22;22317;47.936;12.742;2023-04-03T05:31:05;3.00;58.60
36280;DHT22;22317;47.936;12.742;2023-04-03T05:33:35;3.00;58.40
36280;DHT22;22317;47.936;12.742;2023-04-03T05:36:05;3.00;58.40
36280;DHT22;22317;47.936;12.742;2023-04-03T05:38:35;3.00;58.40
36280;DHT22;22317;47.936;12.742;2023-04-03T05:41:01;2.90;58.40
36280;DHT22;22317;47.936;12.742;2023-04-03T05:43:27;2.90;58.60
36280;DHT22;22317;47.936;12.742;2023-04-03T05:45:54;3.00;58.60
36280;DHT22;22317;47.936;12.742;2023-04-03T05:48:22;3.00;58.50
36280;DHT22;22317;47.936;12.742;2023-04-03T05:50:49;3.00;58.60
36280;DHT22;22317;47.936;12.742;2023-04-03T05:53:29;3.00;58.70
36280;DHT22;22317;47.936;12.742;2023-04-03T05:55:59;3.00;58.70
36280;DHT22;22317;47.936;12.742;2023-04-03T05:58:26;3.00;58.50
36280;DHT22;22317;47.936;12.742;2023-04-03T06:00:52;3.10;58.50
36280;DHT22;22317;47.936;12.742;2023-04-03T06:03:18;3.10;58.60
36280;DHT22;22317;47.936;12.742;2023-04-03T06:05:44;3.10;58.50
36280;DHT22;22317;47.936;12.742;2023-04-03T06:08:11;3.10;58.50
36280;DHT22;22317;47.936;12.742;2023-04-03T06:10:36;3.20;58.50
36280;DHT22;22317;47.936;12.742;2023-04-03T06:13:02;3.20;58.50
36280;DHT22;22317;47.936;12.742;2023-04-03T06:15:28;3.20;58.40
36280;DHT22;22317;47.936;12.742;2023-04-03T06:17:54;3.30;58.50
36280;DHT22;22317;47.936;12.742;2023-04-03T06:20:21;3.30;58.40
36280;DHT22;22317;47.936;12.742;2023-04-03T06:22:48;3.30;58.30
36280;DHT22;22317;47.936;12.742;2023-04-03T06:25:14;3.40;58.30
36280;DHT22;22317;47.936;12.742;2023-04-03T06:27:40;3.40;58.30
36280;DHT22;22317;47.936;12.742;2023-04-03T06:30:06;3.40;58.20
36280;DHT22;22317;47.936;12.742;2023-04-03T06:32:32;3.50;58.20
36280;DHT22;22317;47.936;12.742;2023-04-03T06:34:58;3.50;58.20
36280;DHT22;22317;47.936;12.742;2023-04-03T06:37:24;3.50;58.10
36280;DHT22;22317;47.936;12.742;2023-04-03T06:39:54;3.50;58.10
36280;DHT22;22317;47.936;12.742;2023-04-03T06:42:20;3.50;58.70
36280;DHT22;22317;47.936;12.742;2023-04-03T06:44:59;3.50;58.00
36280;DHT22;22317;47.936;12.742;2023-04-03T06:47:24;3.60;57.90
36280;DHT22;22317;47.936;12.742;2023-04-03T06:49:50;3.70;58.00
36280;DHT22;22317;47.936;12.742;2023-04-03T06:52:16;3.60;57.80
36280;DHT22;22317;47.936;12.742;2023-04-03T06:54:42;3.70;57.90
36280;DHT22;22317;47.936;12.742;2023-04-03T06:57:07;3.70;57.80
36280;DHT22;22317;47.936;12.742;2023-04-03T06:59:34;3.70;57.80
36280;DHT22;22317;47.936;12.742;2023-04-03T07:01:59;3.80;57.80
36280;DHT22;22317;47.936;12.742;2023-04-03T07:04:26;3.80;57.70
36280;DHT22;22317;47.936;12.742;2023-04-03T07:06:51;3.80;57.50
36280;DHT22;22317;47.936;12.742;2023-04-03T07:09:18;1.80;56.50
36280;DHT22;22317;47.936;12.742;2023-04-03T07:11:44;3.80;57.40
36280;DHT22;22317;47.936;12.742;2023-04-03T07:14:10;3.80;57.40
36280;DHT22;22317;47.936;12.742;2023-04-03T07:16:35;3.90;57.50
36280;DHT22;22317;47.936;12.742;2023-04-03T07:19:02;3.80;57.30
36280;DHT22;22317;47.936;12.742;2023-04-03T07:21:28;3.80;57.30
36280;DHT22;22317;47.936;12.742;2023-04-03T07:23:55;3.80;57.20
36280;DHT22;22317;47.936;12.742;2023-04-03T07:26:21;3.90;57.20
36280;DHT22;22317;47.936;12.742;2023-04-03T07:28:49;3.90;57.20
36280;DHT22;22317;47.936;12.742;2023-04-03T07:31:16;3.90;57.30
36280;DHT22;22317;47.936;12.742;2023-04-03T07:33:43;4.10;57.40
36280;DHT22;22317;47.936;12.742;2023-04-03T07:36:14;3.90;57.20
36280;DHT22;22317;47.936;12.742;2023-04-03T07:38:40;3.90;57.10
36280;DHT22;22317;47.936;12.742;2023-04-03T07:41:06;3.90;57.10
36280;DHT22;22317;47.936;12.742;2023-04-03T07:43:32;3.90;57.00
36280;DHT22;22317;47.936;12.742;2023-04-03T07:45:58;3.90;57.10
36280;DHT22;22317;47.936;12.742;2023-04-03T07:48:26;4.00;57.10
36280;DHT22;22317;47.936;12.742;2023-04-03T07:50:52;4.00;57.10
36280;DHT22;22317;47.936;12.742;2023-04-03T07:53:18;4.00;57.10
36280;DHT22;22317;47.936;12.742;2023-04-03T07:55:47;4.00;57.10
36280;DHT22;22317;47.936;12.742;2023-04-03T07:58:16;4.00;56.90
36280;DHT22;22317;47.936;12.742;2023-04-03T08:00:42;4.10;56.90
36280;DHT22;22317;47.936;12.742;2023-04-03T08:03:10;4.10;56.90
36280;DHT22;22317;47.936;12.742;2023-04-03T08:05:43;4.20;56.90
36280;DHT22;22317;47.936;12.742;2023-04-03T08:08:10;4.20;56.80
36280;DHT22;22317;47.936;12.742;2023-04-03T08:10:37;4.20;56.80
36280;DHT22;22317;47.936;12.742;2023-04-03T08:13:04;4.20;56.70
36280;DHT22;22317;47.936;12.742;2023-04-03T08:15:30;4.20;56.70
36280;DHT22;22317;47.936;12.742;2023-04-03T08:17:57;4.30;56.70
36280;DHT22;22317;47.936;12.742;2023-04-03T08:20:23;4.30;56.80
36280;DHT22;22317;47.936;12.742;2023-04-03T08:22:50;4.30;56.80
36280;DHT22;22317;47.936;12.742;2023-04-03T08:25:16;4.40;56.70
36280;DHT22;22317;47.936;12.742;2023-04-03T08:27:43;4.50;56.70
36280;DHT22;22317;47.936;12.742;2023-04-03T08:30:09;4.50;56.80
36280;DHT22;22317;47.936;12.742;2023-04-03T08:32:36;4.60;56.80
36280;DHT22;22317;47.936;12.742;2023-04-03T08:35:05;4.80;56.80
36280;DHT22;22317;47.936;12.742;2023-04-03T08:37:31;4.90;56.70
36280;DHT22;22317;47.936;12.742;2023-04-03T08:39:57;5.10;56.50
36280;DHT22;22317;47.936;12.742;2023-04-03T08:45:56;5.40;56.20
36280;DHT22;22317;47.936;12.742;2023-04-03T08:48:35;5.60;55.90
36280;DHT22;22317;47.936;12.742;2023-04-03T08:51:11;5.70;55.70
36280;DHT22;22317;47.936;12.742;2023-04-03T08:53:44;5.90;55.60
36280;DHT22;22317;47.936;12.742;2023-04-03T08:56:12;6.10;55.50
36280;DHT22;22317;47.936;12.742;2023-04-03T08:58:52;6.20;55.00
36280;DHT22;22317;47.936;12.742;2023-04-03T09:03:50;6.50;54.40
36280;DHT22;22317;47.936;12.742;2023-04-03T09:06:21;6.60;54.10
36280;DHT22;22317;47.936;12.742;2023-04-03T09:09:14;6.70;53.90
36280;DHT22;22317;47.936;12.742;2023-04-03T09:17:18;7.00;52.80
36280;DHT22;22317;47.936;12.742;2023-04-03T09:22:32;7.10;52.10
36280;DHT22;22317;47.936;12.742;2023-04-03T09:25:08;7.20;51.80
36280;DHT22;22317;47.936;12.742;2023-04-03T09:27:35;7.20;51.40
36280;DHT22;22317;47.936;12.742;2023-04-03T09:30:01;7.20;51.00
36280;DHT22;22317;47.936;12.742;2023-04-03T09:32:33;7.10;50.50
36280;DHT22;22317;47.936;12.742;2023-04-03T09:35:04;7.10;50.10
36280;DHT22;22317;47.936;12.742;2023-04-03T09:37:44;7.00;49.70
36280;DHT22;22317;47.936;12.742;2023-04-03T09:45:39;6.70;49.30
36280;DHT22;22317;47.936;12.742;2023-04-03T09:48:16;6.50;49.30
36280;DHT22;22317;47.936;12.742;2023-04-03T09:50:53;6.30;49.40
36280;DHT22;22317;47.936;12.742;2023-04-03T09:55:53;6.10;50.00
36280;DHT22;22317;47.936;12.742;2023-04-03T09:58:37;6.10;50.30
36280;DHT22;22317;47.936;12.742;2023-04-03T10:01:03;6.00;50.40
36280;DHT22;22317;47.936;12.742;2023-04-03T10:03:32;6.00;50.50
36280;DHT22;22317;47.936;12.742;2023-04-03T10:06:00;6.00;50.70
36280;DHT22;22317;47.936;12.742;2023-04-03T10:08:31;6.00;50.60
36280;DHT22;22317;47.936;12.742;2023-04-03T10:11:16;6.00;50.70
36280;DHT22;22317;47.936;12.742;2023-04-03T10:16:41;5.90;50.80
36280;DHT22;22317;47.936;12.742;2023-04-03T10:25:20;5.80;51.00
36280;DHT22;22317;47.936;12.742;2023-04-03T10:33:18;5.60;49.70
36280;DHT22;22317;47.936;12.742;2023-04-03T10:41:14;4.90;50.20
36280;DHT22;22317;47.936;12.742;2023-04-03T10:43:56;4.70;50.50
36280;DHT22;22317;47.936;12.742;2023-04-03T10:46:35;4.60;50.80
36280;DHT22;22317;47.936;12.742;2023-04-03T10:52:56;4.40;51.30
36280;DHT22;22317;47.936;12.742;2023-04-03T10:57:50;4.40;51.70
36280;DHT22;22317;47.936;12.742;2023-04-03T11:00:23;4.40;51.80
36280;DHT22;22317;47.936;12.742;2023-04-03T11:03:00;4.40;51.90
36280;DHT22;22317;47.936;12.742;2023-04-03T11:05:41;4.50;52.00
36280;DHT22;22317;47.936;12.742;2023-04-03T11:08:27;4.50;52.00
36280;DHT22;22317;47.936;12.742;2023-04-03T11:10:59;4.60;52.10
36280;DHT22;22317;47.936;12.742;2023-04-03T11:13:48;4.60;52.10
36280;DHT22;22317;47.936;12.742;2023-04-03T11:16:20;4.80;52.20
36280;DHT22;22317;47.936;12.742;2023-04-03T11:24:16;5.10;51.90
36280;DHT22;22317;47.936;12.742;2023-04-03T11:26:43;5.30;51.70
36280;DHT22;22317;47.936;12.742;2023-04-03T11:29:16;5.40;51.60
36280;DHT22;22317;47.936;12.742;2023-04-03T11:34:46;5.50;50.80
36280;DHT22;22317;47.936;12.742;2023-04-03T11:37:24;5.50;50.90
36280;DHT22;22317;47.936;12.742;2023-04-03T11:40:05;5.50;50.80
36280;DHT22;22317;47.936;12.742;2023-04-03T11:42:40;5.60;50.70
36280;DHT22;22317;47.936;12.742;2023-04-03T11:53:00;5.90;50.00
36280;DHT22;22317;47.936;12.742;2023-04-03T12:00:56;6.00;49.40
36280;DHT22;22317;47.936;12.742;2023-04-03T12:16:24;5.60;50.00
36280;DHT22;22317;47.936;12.742;2023-04-03T12:46:43;6.90;49.50
36280;DHT22;22317;47.936;12.742;2023-04-03T12:49:38;6.80;48.90
36280;DHT22;22317;47.936;12.742;2023-04-03T12:52:16;6.70;48.50
36280;DHT22;22317;47.936;12.742;2023-04-03T12:54:45;6.60;48.60
36280;DHT22;22317;47.936;12.742;2023-04-03T12:57:32;6.50;48.50
36280;DHT22;22317;47.936;12.742;2023-04-03T12:59:58;6.40;48.30
36280;DHT22;22317;47.936;12.742;2023-04-03T13:04:53;6.20;48.40
36280;DHT22;22317;47.936;12.742;2023-04-03T13:07:22;6.20;48.40
36280;DHT22;22317;47.936;12.742;2023-04-03T13:10:02;6.20;48.60
36280;DHT22;22317;47.936;12.742;2023-04-03T13:12:28;6.20;48.70
36280;DHT22;22317;47.936;12.742;2023-04-03T13:14:58;6.20;48.80
36280;DHT22;22317;47.936;12.742;2023-04-03T13:17:25;6.20;48.90
36280;DHT22;22317;47.936;12.742;2023-04-03T13:19:54;6.30;48.80
36280;DHT22;22317;47.936;12.742;2023-04-03T13:22:33;6.50;49.10
36280;DHT22;22317;47.936;12.742;2023-04-03T13:25:07;7.10;50.80
36280;DHT22;22317;47.936;12.742;2023-04-03T13:27:35;8.60;52.40
36280;DHT22;22317;47.936;12.742;2023-04-03T13:30:03;10.40;52.00
36280;DHT22;22317;47.936;12.742;2023-04-03T13:32:31;12.20;50.10
36280;DHT22;22317;47.936;12.742;2023-04-03T13:34:57;13.60;46.20
36280;DHT22;22317;47.936;12.742;2023-04-03T13:37:28;14.40;43.70
36280;DHT22;22317;47.936;12.742;2023-04-03T13:39:59;15.00;42.30
36280;DHT22;22317;47.936;12.742;2023-04-03T13:42:30;15.70;40.80
36280;DHT22;22317;47.936;12.742;2023-04-03T13:45:29;16.40;40.00
36280;DHT22;22317;47.936;12.742;2023-04-03T13:48:37;16.80;37.60
36280;DHT22;22317;47.936;12.742;2023-04-03T13:51:27;17.10;36.40
36280;DHT22;22317;47.936;12.742;2023-04-03T13:56:26;17.50;35.40
36280;DHT22;22317;47.936;12.742;2023-04-03T14:02:28;16.80;32.90
36280;DHT22;22317;47.936;12.742;2023-04-03T14:04:44;16.30;33.20
36280;DHT22;22317;47.936;12.742;2023-04-03T14:07:14;15.60;33.10
36280;DHT22;22317;47.936;12.742;2023-04-03T14:09:41;15.00;33.30
36280;DHT22;22317;47.936;12.742;2023-04-03T14:12:39;14.40;33.40
36280;DHT22;22317;47.936;12.742;2023-04-03T14:15:23;13.70;33.30
36280;DHT22;22317;47.936;12.742;2023-04-03T14:17:50;13.10;33.90
36280;DHT22;22317;47.936;12.742;2023-04-03T14:20:22;12.50;34.40
36280;DHT22;22317;47.936;12.742;2023-04-03T14:22:49;12.10;34.80
36280;DHT22;22317;47.936;12.742;2023-04-03T14:25:17;11.70;35.10
36280;DHT22;22317;47.936;12.742;2023-04-03T14:27:45;11.40;35.50
36280;DHT22;22317;47.936;12.742;2023-04-03T14:30:16;11.10;35.60
36280;DHT22;22317;47.936;12.742;2023-04-03T14:32:42;10.80;35.80
36280;DHT22;22317;47.936;12.742;2023-04-03T14:35:08;10.50;36.00
36280;DHT22;22317;47.936;12.742;2023-04-03T14:37:34;10.20;36.20
36280;DHT22;22317;47.936;12.742;2023-04-03T14:40:03;9.90;36.50
36280;DHT22;22317;47.936;12.742;2023-04-03T14:42:32;9.70;36.70
36280;DHT22;22317;47.936;12.742;2023-04-03T14:44:59;9.40;36.80
36280;DHT22;22317;47.936;12.742;2023-04-03T14:47:28;9.10;37.20
36280;DHT22;22317;47.936;12.742;2023-04-03T14:49:55;8.90;37.60
36280;DHT22;22317;47.936;12.742;2023-04-03T14:52:27;8.70;37.90
36280;DHT22;22317;47.936;12.742;2023-04-03T14:54:53;8.50;38.00
36280;DHT22;22317;47.936;12.742;2023-04-03T14:57:21;8.30;38.00
36280;DHT22;22317;47.936;12.742;2023-04-03T14:59:47;8.10;38.00
36280;DHT22;22317;47.936;12.742;2023-04-03T15:04:42;7.80;38.70
36280;DHT22;22317;47.936;12.742;2023-04-03T15:07:08;7.70;38.90
36280;DHT22;22317;47.936;12.742;2023-04-03T15:09:35;7.60;38.90
36280;DHT22;22317;47.936;12.742;2023-04-03T15:12:02;7.40;38.80
36280;DHT22;22317;47.936;12.742;2023-04-03T15:14:28;7.30;38.80
36280;DHT22;22317;47.936;12.742;2023-04-03T15:16:53;7.20;38.80
36280;DHT22;22317;47.936;12.742;2023-04-03T15:19:19;7.10;38.90
36280;DHT22;22317;47.936;12.742;2023-04-03T15:21:45;7.00;38.90
36280;DHT22;22317;47.936;12.742;2023-04-03T15:24:11;7.00;38.70
36280;DHT22;22317;47.936;12.742;2023-04-03T15:26:37;6.80;38.40
36280;DHT22;22317;47.936;12.742;2023-04-03T15:29:04;6.80;38.60
36280;DHT22;22317;47.936;12.742;2023-04-03T15:31:30;6.60;39.30
36280;DHT22;22317;47.936;12.742;2023-04-03T15:33:56;6.60;38.80
36280;DHT22;22317;47.936;12.742;2023-04-03T15:36:22;6.60;38.70
36280;DHT22;22317;47.936;12.742;2023-04-03T15:38:48;6.50;38.60
36280;DHT22;22317;47.936;12.742;2023-04-03T15:41:14;6.50;38.70
36280;DHT22;22317;47.936;12.742;2023-04-03T15:43:39;5.00;37.80
36280;DHT22;22317;47.936;12.742;2023-04-03T15:46:05;6.40;38.30
36280;DHT22;22317;47.936;12.742;2023-04-03T15:48:31;6.30;38.30
36280;DHT22;22317;47.936;12.742;2023-04-03T15:50:57;6.20;38.30
36280;DHT22;22317;47.936;12.742;2023-04-03T15:53:23;6.20;38.30
36280;DHT22;22317;47.936;12.742;2023-04-03T15:55:48;6.10;38.30
36280;DHT22;22317;47.936;12.742;2023-04-03T15:58:14;6.00;38.20
36280;DHT22;22317;47.936;12.742;2023-04-03T16:00:40;6.00;38.30
36280;DHT22;22317;47.936;12.742;2023-04-03T16:03:12;6.00;38.20
36280;DHT22;22317;47.936;12.742;2023-04-03T16:05:40;6.00;38.30
36280;DHT22;22317;47.936;12.742;2023-04-03T16:08:07;5.90;38.30
36280;DHT22;22317;47.936;12.742;2023-04-03T16:10:34;5.90;38.40
36280;DHT22;22317;47.936;12.742;2023-04-03T16:13:00;5.90;38.40
36280;DHT22;22317;47.936;12.742;2023-04-03T16:15:26;5.90;38.50
36280;DHT22;22317;47.936;12.742;2023-04-03T16:17:53;5.90;38.40
36280;DHT22;22317;47.936;12.742;2023-04-03T16:20:19;5.80;38.40
36280;DHT22;22317;47.936;12.742;2023-04-03T16:22:47;5.80;38.60
36280;DHT22;22317;47.936;12.742;2023-04-03T16:25:13;5.80;38.70
36280;DHT22;22317;47.936;12.742;2023-04-03T16:27:39;5.70;38.50
36280;DHT22;22317;47.936;12.742;2023-04-03T16:30:06;5.60;38.40
36280;DHT22;22317;47.936;12.742;2023-04-03T16:32:32;5.50;38.30
36280;DHT22;22317;47.936;12.742;2023-04-03T16:34:58;5.40;38.20
36280;DHT22;22317;47.936;12.742;2023-04-03T16:37:24;5.30;38.20
36280;DHT22;22317;47.936;12.742;2023-04-03T16:39:50;5.30;38.40
36280;DHT22;22317;47.936;12.742;2023-04-03T16:42:16;5.20;38.40
36280;DHT22;22317;47.936;12.742;2023-04-03T16:44:42;5.10;38.20
36280;DHT22;22317;47.936;12.742;2023-04-03T16:47:08;5.00;38.30
36280;DHT22;22317;47.936;12.742;2023-04-03T16:49:34;4.90;38.30
36280;DHT22;22317;47.936;12.742;2023-04-03T16:52:02;4.80;38.30
36280;DHT22;22317;47.936;12.742;2023-04-03T16:54:28;4.80;38.50
36280;DHT22;22317;47.936;12.742;2023-04-03T16:56:55;4.60;38.40
36280;DHT22;22317;47.936;12.742;2023-04-03T16:59:21;4.50;38.60
36280;DHT22;22317;47.936;12.742;2023-04-03T17:01:47;4.40;38.80
36280;DHT22;22317;47.936;12.742;2023-04-03T17:04:12;4.30;38.90
36280;DHT22;22317;47.936;12.742;2023-04-03T17:06:39;4.20;39.10
36280;DHT22;22317;47.936;12.742;2023-04-03T17:09:05;4.20;39.10
36280;DHT22;22317;47.936;12.742;2023-04-03T17:11:31;3.90;38.60
36280;DHT22;22317;47.936;12.742;2023-04-03T17:16:24;3.80;38.80
36280;DHT22;22317;47.936;12.742;2023-04-03T17:18:50;3.80;39.40
36280;DHT22;22317;47.936;12.742;2023-04-03T17:21:17;3.70;39.20
36280;DHT22;22317;47.936;12.742;2023-04-03T17:23:44;3.60;39.60
36280;DHT22;22317;47.936;12.742;2023-04-03T17:26:11;3.60;39.70
36280;DHT22;22317;47.936;12.742;2023-04-03T17:28:37;3.60;39.60
36280;DHT22;22317;47.936;12.742;2023-04-03T17:31:06;3.50;39.80
36280;DHT22;22317;47.936;12.742;2023-04-03T17:33:32;3.50;39.80
36280;DHT22;22317;47.936;12.742;2023-04-03T17:36:01;3.50;39.70
36280;DHT22;22317;47.936;12.742;2023-04-03T17:38:29;3.50;39.90
36280;DHT22;22317;47.936;12.742;2023-04-03T17:40:56;3.40;40.00
36280;DHT22;22317;47.936;12.742;2023-04-03T17:43:23;3.40;40.10
36280;DHT22;22317;47.936;12.742;2023-04-03T17:45:49;3.40;40.20
36280;DHT22;22317;47.936;12.742;2023-04-03T17:48:15;3.40;40.20
36280;DHT22;22317;47.936;12.742;2023-04-03T17:50:41;3.50;40.30